createdAt,value
2023-05-19T00:03:45.994Z,99981.41
2023-05-19T00:07:42.635Z,99989.66
2023-05-19T00:11:39.511Z,99991.72
2023-05-19T00:15:36.271Z,99988.63
2023-05-19T00:19:33.386Z,99985.59
2023-05-19T00:23:30.002Z,99982.19
2023-05-19T00:27:26.623Z,99975.72
2023-05-19T00:31:23.277Z,99975.66
2023-05-19T00:35:19.957Z,99981.00
2023-05-19T00:39:16.616Z,99984.78
2023-05-19T00:43:13.237Z,99987.03
2023-05-19T00:47:10.224Z,99982.94
2023-05-19T00:51:07.411Z,99984.44
2023-05-19T00:55:04.064Z,99984.75
2023-05-19T00:59:00.653Z,99983.56
2023-05-19T01:02:57.348Z,99989.78
2023-05-19T01:06:56.869Z,100005.06
2023-05-19T01:10:54.170Z,99999.53
2023-05-19T01:14:50.834Z,99989.50
2023-05-19T01:18:56.555Z,99983.34
2023-05-19T01:22:43.453Z,99987.88
2023-05-19T01:26:41.763Z,99994.59
2023-05-19T01:30:37.094Z,99982.34
2023-05-19T01:34:34.059Z,99979.00
2023-05-19T01:38:36.130Z,99972.34
2023-05-19T01:42:37.309Z,99978.03
2023-05-19T01:46:34.981Z,99972.03
2023-05-19T01:50:33.601Z,99969.53
2023-05-19T01:54:30.577Z,99962.06
2023-05-19T01:58:11.624Z,99957.13
2023-05-19T02:02:11.213Z,99962.56
2023-05-19T02:06:35.066Z,99948.94
2023-05-19T02:10:43.959Z,99951.88
2023-05-19T02:14:40.642Z,99955.03
2023-05-19T02:18:37.405Z,99956.19
2023-05-19T02:22:49.217Z,99963.16
2023-05-19T02:26:45.827Z,99966.31
2023-05-19T02:30:42.471Z,99963.31
2023-05-19T02:34:39.130Z,99975.94
2023-05-19T02:38:36.331Z,99977.19
2023-05-19T02:42:32.918Z,99974.44
2023-05-19T02:46:29.574Z,99970.13
2023-05-19T02:50:26.374Z,99966.22
2023-05-19T02:54:22.983Z,99971.47
2023-05-19T02:58:20.536Z,99970.97
2023-05-19T03:02:17.181Z,99976.63
2023-05-19T03:06:14.206Z,99980.28
2023-05-19T03:10:10.936Z,99980.19
2023-05-19T03:14:09.532Z,99977.94
2023-05-19T03:18:06.822Z,99983.75
2023-05-19T03:22:03.486Z,99971.38
2023-05-19T03:26:01.313Z,99972.94
2023-05-19T03:29:58.206Z,99975.84
2023-05-19T03:33:54.938Z,99986.44
2023-05-19T03:37:52.058Z,99981.03
2023-05-19T03:41:49.877Z,99975.50
2023-05-19T03:45:46.750Z,99978.09
2023-05-19T03:50:02.409Z,99969.75
2023-05-19T03:54:34.599Z,99983.66
2023-05-19T03:58:31.269Z,99980.31
2023-05-19T04:02:28.286Z,99997.41
2023-05-19T04:06:25.051Z,100001.06
2023-05-19T04:10:23.477Z,100003.75
2023-05-19T04:14:20.348Z,100001.94
2023-05-19T04:18:16.957Z,99995.66
2023-05-19T04:22:13.605Z,100005.88
2023-05-19T04:26:12.237Z,100014.38
2023-05-19T04:30:09.070Z,100022.91
2023-05-19T04:34:06.056Z,100009.09
2023-05-19T04:38:02.871Z,100022.63
2023-05-19T04:42:02.686Z,100021.03
2023-05-19T04:46:02.099Z,100008.84
2023-05-19T04:50:00.866Z,100017.00
2023-05-19T04:53:57.629Z,100008.00
2023-05-19T04:57:54.347Z,99999.13
2023-05-19T05:01:51.761Z,100020.66
2023-05-19T05:05:48.894Z,100006.63
2023-05-19T05:09:45.625Z,100010.44
2023-05-19T05:13:42.390Z,100018.84
2023-05-19T05:16:59.787Z,100008.25
2023-05-19T05:20:04.588Z,100009.06
2023-05-19T05:23:06.875Z,100014.50
2023-05-19T05:26:16.257Z,100013.56
2023-05-19T05:29:18.350Z,100022.91
2023-05-19T05:32:20.509Z,100021.84
2023-05-19T05:35:24.343Z,100018.06
2023-05-19T05:38:26.643Z,100017.00
2023-05-19T05:41:35.007Z,100014.84
2023-05-19T05:44:41.001Z,100019.16
2023-05-19T05:47:43.337Z,100004.88
2023-05-19T05:50:45.908Z,100003.06
2023-05-19T05:53:54.104Z,100005.78
2023-05-19T05:56:59.682Z,100010.94
2023-05-19T06:00:01.664Z,100014.06
2023-05-19T06:03:06.064Z,100020.06
2023-05-19T06:06:08.464Z,100012.97
2023-05-19T06:09:10.453Z,100015.69
2023-05-19T06:12:12.566Z,100013.41
2023-05-19T06:15:21.965Z,100014.25
2023-05-19T06:18:52.301Z,100014.63
2023-05-19T06:21:54.398Z,100014.19
2023-05-19T06:24:56.578Z,100021.88
2023-05-19T06:27:58.660Z,100018.53
2023-05-19T06:31:01.155Z,100031.84
2023-05-19T06:34:24.402Z,100027.59
2023-05-19T06:37:26.453Z,100029.34
2023-05-19T06:40:28.522Z,100035.06
2023-05-19T06:43:30.809Z,100041.88
2023-05-19T06:46:57.704Z,100036.41
2023-05-19T06:50:19.629Z,100041.38
2023-05-19T06:53:24.163Z,100043.25
2023-05-19T06:56:27.554Z,100044.13
2023-05-19T06:59:29.510Z,100063.88
2023-05-19T07:02:31.712Z,100038.34
2023-05-19T07:05:33.917Z,100048.84
2023-05-19T07:08:37.337Z,100051.22
2023-05-19T07:11:41.305Z,100054.72
2023-05-19T07:14:45.328Z,100056.56
2023-05-19T07:17:48.363Z,100056.78
2023-05-19T07:20:52.650Z,100059.41
2023-05-19T07:23:55.976Z,100059.91
2023-05-19T07:26:58.325Z,100054.75
2023-05-19T07:30:00.255Z,100058.59
2023-05-19T07:33:02.341Z,100050.44
2023-05-19T07:36:04.856Z,100045.94
2023-05-19T07:39:06.853Z,100046.47
2023-05-19T07:42:08.957Z,100043.97
2023-05-19T07:45:11.516Z,100038.66
2023-05-19T07:48:13.824Z,100038.25
2023-05-19T07:51:16.245Z,100041.81
2023-05-19T07:54:18.484Z,100047.59
2023-05-19T07:57:20.513Z,100049.00
2023-05-19T08:00:22.674Z,100053.19
2023-05-19T08:03:25.339Z,100051.47
2023-05-19T08:06:28.330Z,100051.84
2023-05-19T08:09:30.379Z,100056.84
2023-05-19T08:12:32.537Z,100065.47
2023-05-19T08:15:34.928Z,100057.06
2023-05-19T08:18:37.143Z,100058.16
2023-05-19T08:21:39.096Z,100048.41
2023-05-19T08:24:43.277Z,100049.00
2023-05-19T08:27:45.733Z,100058.19
2023-05-19T08:30:47.728Z,100051.78
2023-05-19T08:33:49.676Z,100054.28
2023-05-19T08:36:51.701Z,100057.41
2023-05-19T08:39:53.585Z,100051.47
2023-05-19T08:42:55.654Z,100055.53
2023-05-19T08:46:00.179Z,100054.88
2023-05-19T08:49:08.730Z,100047.59
2023-05-19T08:52:27.588Z,100052.94
2023-05-19T08:55:53.386Z,100048.53
2023-05-19T08:58:59.767Z,100048.41
2023-05-19T09:02:03.752Z,100040.97
2023-05-19T09:05:07.389Z,100055.03
2023-05-19T09:08:09.601Z,100054.44
2023-05-19T09:11:12.267Z,100058.69
2023-05-19T09:14:14.354Z,100055.97
2023-05-19T09:17:16.503Z,100067.97
2023-05-19T09:20:18.475Z,100056.78
2023-05-19T09:23:21.025Z,100063.28
2023-05-19T09:26:23.471Z,100056.34
2023-05-19T09:29:25.977Z,100051.00
2023-05-19T09:32:28.032Z,100048.81
2023-05-19T09:35:30.048Z,100047.25
2023-05-19T09:38:32.448Z,100052.44
2023-05-19T09:41:34.493Z,100041.34
2023-05-19T09:44:36.390Z,100053.66
2023-05-19T09:47:40.407Z,100039.91
2023-05-19T09:50:46.758Z,100038.19
2023-05-19T09:53:49.265Z,100039.44
2023-05-19T09:57:02.167Z,100037.75
2023-05-19T10:00:17.857Z,100036.97
2023-05-19T10:03:21.342Z,100030.44
2023-05-19T10:06:23.841Z,100030.63
2023-05-19T10:09:28.194Z,100024.66
2023-05-19T10:12:31.977Z,100032.88
2023-05-19T10:15:40.706Z,100037.00
2023-05-19T10:18:46.263Z,100026.00
2023-05-19T10:21:48.813Z,100023.47
2023-05-19T10:24:50.906Z,100011.38
2023-05-19T10:28:01.879Z,100009.84
2023-05-19T10:31:08.926Z,100003.97
2023-05-19T10:34:33.372Z,100015.03
2023-05-19T10:37:52.030Z,99998.56
2023-05-19T11:15:17.908Z,99991.63
2023-05-19T11:18:20.719Z,99991.97
2023-05-19T11:21:22.688Z,99983.59
2023-05-19T11:24:36.625Z,99987.94
2023-05-19T11:27:40.121Z,99981.22
2023-05-19T11:30:43.786Z,99976.47
2023-05-19T11:33:45.835Z,99975.66
2023-05-19T11:36:48.793Z,99974.31
2023-05-19T11:39:52.233Z,99971.03
2023-05-19T11:42:54.277Z,99968.59
2023-05-19T11:45:56.529Z,99962.34
2023-05-19T11:48:58.613Z,99962.88
2023-05-19T11:52:02.287Z,99960.53
2023-05-19T11:55:04.311Z,99954.72
2023-05-19T11:58:06.472Z,99949.84
2023-05-19T12:01:10.282Z,99954.31
2023-05-19T12:04:12.301Z,99942.09
2023-05-19T12:07:17.740Z,99937.25
2023-05-19T12:10:39.107Z,99942.19
2023-05-19T12:13:41.226Z,99932.69
2023-05-19T12:16:43.633Z,99940.16
2023-05-19T12:19:47.747Z,99938.59
2023-05-19T12:22:51.444Z,99937.28
2023-05-19T12:25:53.499Z,99938.41
2023-05-19T12:28:55.435Z,99934.31
2023-05-19T12:31:57.465Z,99943.81
2023-05-19T12:35:00.447Z,99934.63
2023-05-19T12:38:06.680Z,99926.91
2023-05-19T12:41:13.786Z,99922.63
2023-05-19T12:44:16.363Z,99922.09
2023-05-19T12:47:20.247Z,99923.97
2023-05-19T12:50:22.236Z,99926.75
2023-05-19T12:53:26.713Z,99920.50
2023-05-19T12:56:28.960Z,99923.44
2023-05-19T12:59:38.652Z,99918.13
2023-05-19T13:03:07.791Z,99916.47
2023-05-19T13:06:10.594Z,99912.75
2023-05-19T13:09:12.412Z,99908.75
2023-05-19T13:12:14.353Z,99906.50
2023-05-19T13:15:16.296Z,99897.94
2023-05-19T13:18:18.703Z,99900.63
2023-05-19T13:21:20.736Z,99894.34
2023-05-19T13:24:22.682Z,99899.13
2023-05-19T13:27:25.091Z,99881.72
2023-05-19T13:30:28.311Z,99879.06
2023-05-19T13:33:30.167Z,99874.69
2023-05-19T13:36:33.430Z,99876.38
2023-05-19T13:39:36.247Z,99861.66
2023-05-19T13:42:38.227Z,99870.41
2023-05-19T13:45:42.252Z,99870.06
2023-05-19T13:52:30.405Z,99865.38
2023-05-19T13:55:33.102Z,99865.69
2023-05-19T13:58:35.237Z,99869.06
2023-05-19T14:01:37.205Z,99862.03
2023-05-19T14:04:39.928Z,99859.19
2023-05-19T14:07:42.564Z,99852.13
2023-05-19T14:10:46.834Z,99849.41
2023-05-19T14:13:52.857Z,99845.97
2023-05-19T14:16:56.405Z,99859.25
2023-05-19T14:19:58.312Z,99858.72
2023-05-19T14:23:00.316Z,99859.31
2023-05-19T14:26:02.309Z,99854.72
2023-05-19T14:29:04.904Z,99857.31
2023-05-19T14:32:07.706Z,99852.88
2023-05-19T14:35:09.757Z,99851.75
2023-05-19T14:38:13.177Z,99848.13
2023-05-19T14:41:15.137Z,99847.13
2023-05-19T14:44:17.052Z,99844.59
2023-05-19T14:47:19.088Z,99852.63
2023-05-19T14:50:21.159Z,99848.13
2023-05-19T14:53:23.178Z,99853.06
2023-05-19T14:56:25.241Z,99845.19
2023-05-19T14:59:27.471Z,99845.91
2023-05-19T15:02:29.970Z,99845.31
2023-05-19T15:05:31.986Z,99849.78
2023-05-19T15:08:34.000Z,99834.56
2023-05-19T15:11:35.886Z,99838.22
2023-05-19T15:14:38.295Z,99843.72
2023-05-19T15:17:40.377Z,99844.66
2023-05-19T15:20:43.975Z,99838.41
2023-05-19T15:23:46.023Z,99839.88
2023-05-19T15:26:48.014Z,99836.06
2023-05-19T15:29:50.107Z,99836.56
2023-05-19T15:32:52.061Z,99839.97
2023-05-19T15:35:54.335Z,99843.13
2023-05-19T15:38:56.335Z,99844.47
2023-05-19T15:41:58.192Z,99838.19
2023-05-19T15:45:00.119Z,99850.09
2023-05-19T15:52:16.662Z,99848.94
2023-05-19T15:55:18.787Z,99841.09
2023-05-19T15:58:20.883Z,99834.41
2023-05-19T16:01:22.931Z,99835.16
2023-05-19T16:04:24.929Z,99826.94
2023-05-19T16:07:27.343Z,99826.44
2023-05-19T16:10:29.210Z,99829.06
2023-05-19T16:13:33.561Z,99830.22
2023-05-19T16:16:35.686Z,99831.50
2023-05-19T16:19:38.350Z,99828.34
2023-05-19T16:22:40.223Z,99832.91
2023-05-19T16:25:42.334Z,99829.69
2023-05-19T16:28:44.341Z,99835.00
2023-05-19T16:31:46.283Z,99833.97
2023-05-19T16:34:48.264Z,99835.59
2023-05-19T16:37:50.175Z,99837.41
2023-05-19T16:40:52.337Z,99842.06
2023-05-19T16:43:54.298Z,99838.63
2023-05-19T16:46:56.182Z,99837.81
2023-05-19T16:49:58.111Z,99843.56
2023-05-19T16:53:00.038Z,99849.75
2023-05-19T16:56:02.128Z,99857.16
2023-05-19T16:59:04.066Z,99860.63
2023-05-19T17:02:07.446Z,99862.22
2023-05-19T17:05:09.487Z,99862.16
2023-05-19T17:08:12.753Z,99858.81
2023-05-19T17:11:14.629Z,99855.31
2023-05-19T17:14:16.626Z,99868.22
2023-05-19T17:17:19.429Z,99870.81
2023-05-19T17:20:21.547Z,99870.00
2023-05-19T17:23:23.506Z,99874.09
2023-05-19T17:26:26.527Z,99875.66
2023-05-19T17:29:28.458Z,99870.53
2023-05-19T17:32:35.773Z,99876.25
2023-05-19T17:35:37.898Z,99882.91
2023-05-19T17:38:40.515Z,99876.44
2023-05-19T17:41:43.016Z,99884.69
2023-05-19T17:44:44.923Z,99891.91
2023-05-19T17:47:46.931Z,99885.53
2023-05-19T17:50:49.491Z,99883.41
2023-05-19T17:53:51.732Z,99884.28
2023-05-19T17:56:57.908Z,99886.09
2023-05-19T18:00:00.644Z,99888.41
2023-05-19T18:03:04.639Z,99892.03
2023-05-19T18:06:07.388Z,99887.59
2023-05-19T18:09:11.034Z,99897.72
2023-05-19T18:12:13.028Z,99894.69
2023-05-19T18:15:14.971Z,99889.53
2023-05-19T18:18:16.898Z,99899.59
2023-05-19T18:21:18.998Z,99895.69
2023-05-19T18:24:20.967Z,99893.25
2023-05-19T18:27:22.977Z,99897.13
2023-05-19T18:30:25.048Z,99896.31
2023-05-19T18:33:28.532Z,99893.75
2023-05-19T18:36:32.613Z,99901.25
2023-05-19T18:39:34.544Z,99901.63
2023-05-19T18:42:36.451Z,99905.63
2023-05-19T18:45:38.498Z,99905.91
2023-05-19T18:48:40.634Z,99907.09
2023-05-19T18:51:42.607Z,99905.72
2023-05-19T18:54:45.981Z,99911.88
2023-05-19T18:57:47.909Z,99911.53
2023-05-19T19:00:50.444Z,99909.59
2023-05-19T19:03:52.411Z,99917.41
2023-05-19T19:06:54.328Z,99914.78
2023-05-19T19:09:56.271Z,99921.81
2023-05-19T19:12:58.224Z,99928.25
2023-05-19T19:16:00.130Z,99929.06
2023-05-19T19:19:02.176Z,99935.94
2023-05-19T19:22:04.399Z,99935.63
2023-05-19T19:25:06.587Z,99943.31
2023-05-19T19:28:08.516Z,99939.91
2023-05-19T19:52:05.414Z,99925.38
2023-05-19T19:55:07.974Z,99926.59
2023-05-19T19:58:09.967Z,99927.28
2023-05-19T20:01:11.933Z,99928.28
2023-05-19T20:04:13.991Z,99936.53
2023-05-19T20:07:19.608Z,99926.44
2023-05-19T20:10:21.511Z,99936.69
2023-05-19T20:13:23.431Z,99934.63
2023-05-19T20:16:25.480Z,99926.28
2023-05-19T20:19:30.134Z,99930.13
2023-05-19T20:22:32.028Z,99924.84
2023-05-19T20:25:35.059Z,99921.69
2023-05-19T20:28:37.516Z,99929.22
2023-05-19T20:31:39.568Z,99922.97
2023-05-19T20:34:41.933Z,99925.16
2023-05-19T20:37:43.950Z,99928.78
2023-05-19T20:40:46.036Z,99930.56
2023-05-19T20:43:48.219Z,99932.81
2023-05-19T20:46:50.179Z,99938.03
2023-05-19T20:49:52.211Z,99938.28
2023-05-19T20:52:54.330Z,99942.44
2023-05-19T20:55:56.284Z,99942.03
2023-05-19T20:58:58.230Z,99949.84
2023-05-19T21:02:00.206Z,99944.81
2023-05-19T21:05:03.278Z,99949.00
2023-05-19T21:08:05.488Z,99940.69
2023-05-19T21:11:07.368Z,99932.91
2023-05-19T21:14:09.339Z,99927.50
2023-05-19T21:17:11.317Z,99939.56
2023-05-19T21:20:13.419Z,99938.50
2023-05-19T21:23:15.437Z,99936.91
2023-05-19T21:26:17.656Z,99932.59
2023-05-19T21:29:19.608Z,99935.28
2023-05-19T21:32:21.938Z,99930.44
2023-05-19T21:35:23.857Z,99943.13
2023-05-19T21:38:26.656Z,99933.41
2023-05-19T21:41:28.576Z,99937.69
2023-05-19T21:44:32.025Z,99938.22
2023-05-19T21:47:33.938Z,99944.50
2023-05-19T21:50:37.530Z,99948.06
2023-05-19T21:53:39.454Z,99944.44
2023-05-19T21:56:41.327Z,99938.41
2023-05-19T21:59:44.933Z,99945.38
2023-05-19T22:02:49.176Z,99943.19
2023-05-19T22:05:52.484Z,99934.38
2023-05-19T22:08:54.669Z,99932.81
2023-05-19T22:11:56.668Z,99943.84
2023-05-19T22:14:58.764Z,99948.28
2023-05-19T22:22:09.685Z,99949.03
2023-05-19T22:25:15.067Z,99930.78
2023-05-19T22:28:17.063Z,99935.75
2023-05-19T22:31:19.020Z,99928.28
2023-05-19T22:34:21.001Z,99917.81
2023-05-19T22:37:23.238Z,99906.59
2023-05-19T22:40:28.156Z,99935.00
2023-05-19T22:43:30.070Z,99924.25
2023-05-19T22:46:32.232Z,99929.22
2023-05-19T22:49:34.237Z,99922.38
2023-05-19T22:56:46.386Z,99925.47
2023-05-19T22:59:48.471Z,99931.38
2023-05-19T23:02:50.534Z,99908.06
2023-05-19T23:05:52.467Z,99928.06
2023-05-19T23:09:04.421Z,99919.88
2023-05-19T23:12:07.031Z,99912.63
2023-05-19T23:15:12.288Z,99911.78
2023-05-19T23:18:15.152Z,99912.38
2023-05-19T23:21:17.612Z,99906.25
2023-05-19T23:24:19.520Z,99902.38
2023-05-19T23:27:21.411Z,99910.81
2023-05-19T23:30:23.246Z,99913.88
2023-05-19T23:33:25.123Z,99912.75
2023-05-19T23:36:27.082Z,99899.25
2023-05-19T23:39:28.930Z,99901.00
2023-05-19T23:42:31.017Z,99913.78
2023-05-19T23:45:33.324Z,99905.38
2023-05-19T23:48:36.641Z,99910.22
2023-05-19T23:51:38.633Z,99904.84
2023-05-19T23:54:40.785Z,99899.78
2023-05-19T23:57:43.277Z,99897.50
